KMGR

Moultrie Municipal Airport

Moultrie, Georgia, USA
METAR KMGR 210355Z AUTO 00000KT 10SM CLR 22/22 A3010 RMK AO2
Observed Flight Rules
Aug-21 @ 03:55 UTC (14 minutes ago) Visual Flight Rules
Visibility Clouds
10 miles
  • Clear skies
Temperatures Readings
Current 22°C / 72°F
Dewpoint 22°C / 72°F
Humidity 100%
Altimeter 30.1" Hg
Pressure 1019 hPa
Elevation 90
METAR KMGR 210355Z AUTO 00000KT 10SM CLR 22/22 A3010 RMK AO2
Observed Flight Rules
Aug-21 @ 03:55 UTC
(14 minutes ago)
VFR
Clouds
  • Clear skies
Temperature Dewpoint
22°C / 72°F 22°C / 72°F
Humidity Altimeter Pressure
100% 30.1" Hg 1019 hPa